Time;durP1;ratioP1;P1;durP2;ratioP2;P2;SDS_P1;SDS_P2;PMS_P1;PMS_P2;Temp;Humidity;BMP_temperature;BMP_pressure;BME280_temperature;BME280_humidity;BME280_pressure;Samples;Min_cycle;Max_cycle;Signal;HPM_P1;HPM_P2
2023/02/27 00:00:21;;;;;;;7.75;2.42;;;;;;;;;;5051918;28;20048;-65
2023/02/27 00:02:52;;;;;;;5.57;2.22;;;;;;;;;;5016560;28;20081;-66
2023/02/27 00:05:22;;;;;;;5.43;2.55;;;;;;;;;;5017032;28;20052;-65
2023/02/27 00:07:52;;;;;;;5.22;2.53;;;;;;;;;;5051472;28;20045;-66
2023/02/27 00:10:22;;;;;;;5.43;2.13;;;;;;;;;;5051368;28;20531;-66
2023/02/27 00:12:52;;;;;;;5.65;2.22;;;;;;;;;;5061026;28;20400;-65
2023/02/27 00:15:22;;;;;;;3.85;1.85;;;;;;;;;;5036206;28;20053;-66
2023/02/27 00:17:52;;;;;;;5.57;2.00;;;;;;;;;;5020653;28;20060;-65
2023/02/27 00:20:21;;;;;;;5.00;2.10;;;;;;;;;;5036101;28;20059;-65
2023/02/27 00:22:52;;;;;;;6.57;2.83;;;;;;;;;;5071192;28;20511;-65
2023/02/27 00:25:22;;;;;;;6.65;3.17;;;;;;;;;;5069259;28;20049;-66
2023/02/27 00:27:52;;;;;;;5.80;2.67;;;;;;;;;;5070877;28;20045;-65
2023/02/27 00:30:25;;;;;;;4.93;2.55;;;;;;;;;;5048553;28;20053;-66
2023/02/27 00:32:55;;;;;;;;;;;;;;;;;;5002021;28;20068;-65
2023/02/27 00:35:24;;;;;;;6.75;2.33;;;;;;;;;;5031032;28;19927;-65
2023/02/27 00:37:54;;;;;;;5.38;2.65;;;;;;;;;;5048624;28;20128;-66
2023/02/27 00:40:25;;;;;;;5.75;2.53;;;;;;;;;;5048530;28;20052;-66
2023/02/27 00:42:55;;;;;;;7.55;2.25;;;;;;;;;;4975826;28;20049;-66
2023/02/27 00:45:25;;;;;;;9.20;2.53;;;;;;;;;;4960371;28;20061;-66
2023/02/27 00:47:55;;;;;;;7.43;2.72;;;;;;;;;;5009013;28;20552;-66
2023/02/27 00:50:25;;;;;;;7.45;3.40;;;;;;;;;;4976382;28;20057;-65
2023/02/27 00:52:54;;;;;;;11.30;3.65;;;;;;;;;;4992239;28;20064;-66
2023/02/27 00:55:24;;;;;;;9.55;3.22;;;;;;;;;;5008689;28;20061;-65
2023/02/27 00:57:55;;;;;;;8.20;3.78;;;;;;;;;;4992385;28;20105;-66
2023/02/27 01:00:24;;;;;;;8.20;3.63;;;;;;;;;;4976072;28;20053;-66
2023/02/27 01:02:54;;;;;;;8.20;3.75;;;;;;;;;;5008725;28;20053;-65
2023/02/27 01:05:24;;;;;;;7.88;3.28;;;;;;;;;;4988641;28;20065;-65
2023/02/27 01:07:54;;;;;;;7.68;3.47;;;;;;;;;;4997830;28;20581;-65
2023/02/27 01:10:24;;;;;;;9.38;4.55;;;;;;;;;;4988637;28;20054;-65
2023/02/27 01:12:54;;;;;;;8.35;3.05;;;;;;;;;;4988948;28;20059;-65
2023/02/27 01:15:24;;;;;;;13.25;3.28;;;;;;;;;;4938070;28;20531;-65
2023/02/27 01:17:54;;;;;;;9.32;3.10;;;;;;;;;;4969495;28;20058;-66
2023/02/27 01:20:24;;;;;;;6.93;3.28;;;;;;;;;;4977953;28;20058;-65
2023/02/27 01:22:54;;;;;;;7.78;3.00;;;;;;;;;;4969125;28;20198;-65
2023/02/27 01:25:23;;;;;;;6.65;2.97;;;;;;;;;;4937414;28;20055;-66
2023/02/27 01:27:53;;;;;;;7.75;3.38;;;;;;;;;;4988360;28;20062;-65
2023/02/27 01:30:23;;;;;;;7.35;3.13;;;;;;;;;;4988539;28;20054;-65
2023/02/27 01:32:52;;;;;;;10.23;3.10;;;;;;;;;;4988822;28;20089;-65
2023/02/27 01:35:22;;;;;;;5.70;3.00;;;;;;;;;;4969234;28;20047;-66
2023/02/27 01:37:52;;;;;;;6.38;3.00;;;;;;;;;;4969547;28;20063;-66
2023/02/27 01:40:22;;;;;;;10.40;3.30;;;;;;;;;;4969240;28;20054;-65
2023/02/27 01:42:51;;;;;;;6.88;3.08;;;;;;;;;;4956306;28;20050;-66
2023/02/27 01:45:28;;;;;;;6.88;3.05;;;;;;;;;;4972993;28;20062;-65
2023/02/27 01:48:19;;;;;;;7.43;3.30;;;;;;;;;;4992160;28;20446;-66
2023/02/27 01:51:09;;;;;;;6.47;2.88;;;;;;;;;;4956354;28;20055;-66
2023/02/27 01:53:42;;;;;;;7.45;3.35;;;;;;;;;;4972996;28;20058;-66
2023/02/27 01:56:15;;;;;;;8.50;3.60;;;;;;;;;;4973072;28;20070;-66
2023/02/27 01:58:48;;;;;;;12.35;3.35;;;;;;;;;;4972639;28;20051;-66
2023/02/27 02:01:18;;;;;;;;;;;;;;;;;;4989025;28;20058;-65
2023/02/27 02:04:06;;;;;;;8.02;2.90;;;;;;;;;;4972782;28;19966;-65
2023/02/27 02:06:39;;;;;;;7.07;3.00;;;;;;;;;;4939085;28;20546;-66
2023/02/27 02:09:10;;;;;;;9.20;3.25;;;;;;;;;;4953291;29;20132;-65
2023/02/27 02:11:41;;;;;;;6.82;3.08;;;;;;;;;;4953053;29;20047;-65
2023/02/27 02:14:11;;;;;;;9.05;2.40;;;;;;;;;;4952750;29;20059;-65
2023/02/27 02:17:00;;;;;;;9.57;2.72;;;;;;;;;;4953101;29;20067;-66
2023/02/27 02:19:57;;;;;;;9.00;2.80;;;;;;;;;;4886893;29;20047;-66
2023/02/27 02:22:32;;;;;;;6.22;2.42;;;;;;;;;;4883170;29;20052;-66
2023/02/27 02:25:38;;;;;;;6.60;2.88;;;;;;;;;;4895784;29;20044;-66
2023/02/27 02:28:40;;;;;;;7.18;2.88;;;;;;;;;;4902439;29;20056;-66
2023/02/27 02:31:24;;;;;;;10.70;3.28;;;;;;;;;;4895465;29;20532;-66
2023/02/27 02:34:13;;;;;;;7.40;3.05;;;;;;;;;;4895761;29;20061;-66
2023/02/27 02:37:04;;;;;;;9.45;2.75;;;;;;;;;;4876814;29;20064;-66
2023/02/27 02:39:52;;;;;;;7.75;3.10;;;;;;;;;;4848172;29;20431;-65
2023/02/27 02:42:55;;;;;;;10.75;2.78;;;;;;;;;;4839842;29;20070;-65
2023/02/27 02:45:37;;;;;;;8.43;2.40;;;;;;;;;;4870137;29;20050;-66
2023/02/27 02:48:52;;;;;;;5.32;2.63;;;;;;;;;;4839866;29;20054;-66
2023/02/27 02:51:52;;;;;;;7.25;3.53;;;;;;;;;;4838749;29;20094;-65
2023/02/27 02:54:46;;;;;;;6.57;2.80;;;;;;;;;;4838135;29;20062;-65
2023/02/27 02:57:47;;;;;;;5.40;2.70;;;;;;;;;;4837661;29;20050;-65
2023/02/27 03:00:34;;;;;;;7.70;3.00;;;;;;;;;;4836119;29;20064;-66
2023/02/27 03:03:29;;;;;;;7.50;2.70;;;;;;;;;;4857608;29;20514;-65
2023/02/27 03:06:16;;;;;;;7.88;2.88;;;;;;;;;;4839215;29;20069;-66
2023/02/27 03:09:04;;;;;;;8.63;3.05;;;;;;;;;;4820904;29;20057;-67
2023/02/27 03:11:39;;;;;;;6.40;3.03;;;;;;;;;;4774687;29;20397;-66
2023/02/27 03:14:19;;;;;;;7.43;2.30;;;;;;;;;;4810719;29;20058;-66
2023/02/27 03:16:52;;;;;;;7.22;3.00;;;;;;;;;;4820850;29;20062;-66
2023/02/27 03:19:47;;;;;;;7.15;2.60;;;;;;;;;;4821236;29;20058;-66
2023/02/27 03:22:24;;;;;;;6.95;2.92;;;;;;;;;;4805846;29;20050;-65
2023/02/27 03:24:59;;;;;;;7.57;2.58;;;;;;;;;;4805672;29;20065;-65
2023/02/27 03:27:42;;;;;;;12.30;3.10;;;;;;;;;;4786833;29;20096;-66
2023/02/27 03:30:42;;;;;;;9.05;3.40;;;;;;;;;;4805469;29;20058;-66
2023/02/27 03:33:34;;;;;;;7.10;2.95;;;;;;;;;;4817667;29;20822;-66
2023/02/27 03:36:11;;;;;;;10.93;3.47;;;;;;;;;;4820657;29;20054;-65
2023/02/27 03:38:54;;;;;;;8.93;3.97;;;;;;;;;;4825733;29;20050;-66
2023/02/27 03:41:32;;;;;;;12.13;4.53;;;;;;;;;;4806139;29;20637;-66
2023/02/27 03:45:06;;;;;;;18.85;5.63;;;;;;;;;;4811126;29;20059;-66
2023/02/27 03:47:36;;;;;;;12.48;4.93;;;;;;;;;;4799173;29;20052;-66
2023/02/27 03:50:07;;;;;;;12.55;5.43;;;;;;;;;;4799399;29;20066;-66
2023/02/27 03:52:37;;;;;;;9.43;4.20;;;;;;;;;;4820339;29;20507;-66
2023/02/27 03:55:27;;;;;;;10.27;4.15;;;;;;;;;;5171027;27;20205;-66
2023/02/27 03:57:57;;;;;;;9.73;4.00;;;;;;;;;;5072455;28;20051;-67
2023/02/27 04:00:28;;;;;;;7.20;3.53;;;;;;;;;;5065876;28;20053;-66
2023/02/27 04:03:00;;;;;;;8.05;3.25;;;;;;;;;;5045500;28;20068;-66
2023/02/27 04:05:32;;;;;;;9.27;3.38;;;;;;;;;;5025593;28;20057;-66
2023/02/27 04:08:26;;;;;;;6.40;2.30;;;;;;;;;;4986074;28;20058;-66
2023/02/27 04:11:01;;;;;;;8.43;3.13;;;;;;;;;;4966853;28;20055;-65
2023/02/27 04:13:51;;;;;;;6.28;3.17;;;;;;;;;;4966944;28;20062;-66
2023/02/27 04:16:49;;;;;;;6.85;3.00;;;;;;;;;;4890913;29;20063;-65
2023/02/27 04:19:36;;;;;;;7.75;3.30;;;;;;;;;;4890946;29;20057;-66
2023/02/27 04:22:29;;;;;;;10.98;3.60;;;;;;;;;;4890830;29;20541;-65
2023/02/27 04:25:17;;;;;;;10.85;3.47;;;;;;;;;;4890971;29;20060;-66
2023/02/27 04:27:55;;;;;;;6.80;2.90;;;;;;;;;;4905771;29;20068;-66
2023/02/27 04:30:31;;;;;;;7.00;2.85;;;;;;;;;;4909358;29;20072;-65
2023/02/27 04:33:09;;;;;;;7.55;2.95;;;;;;;;;;4910186;29;20405;-66
2023/02/27 04:35:55;;;;;;;9.43;2.55;;;;;;;;;;4894287;29;20747;-65
2023/02/27 04:38:36;;;;;;;12.20;3.63;;;;;;;;;;4954054;28;20509;-65
2023/02/27 04:41:24;;;;;;;11.25;4.18;;;;;;;;;;5025258;28;20058;-66
2023/02/27 04:43:56;;;;;;;9.02;3.92;;;;;;;;;;5025250;28;20061;-65
2023/02/27 04:46:28;;;;;;;9.13;4.43;;;;;;;;;;4992905;28;20065;-65
2023/02/27 04:49:11;;;;;;;9.95;3.33;;;;;;;;;;5050784;28;20504;-66
2023/02/27 04:52:10;;;;;;;8.60;3.90;;;;;;;;;;5048647;28;20065;-66
2023/02/27 04:54:50;;;;;;;9.48;3.78;;;;;;;;;;5045208;28;20044;-66
2023/02/27 04:57:27;;;;;;;9.65;3.95;;;;;;;;;;5067690;28;20059;-65
2023/02/27 05:00:00;;;;;;;6.43;2.95;;;;;;;;;;5051385;28;20064;-65
2023/02/27 05:02:42;;;;;;;6.38;3.83;;;;;;;;;;5052533;28;20048;-65
2023/02/27 05:05:22;;;;;;;11.07;3.88;;;;;;;;;;5079976;28;20563;-66
2023/02/27 05:07:58;;;;;;;7.70;3.38;;;;;;;;;;5037085;28;20061;-65
2023/02/27 05:10:42;;;;;;;7.88;4.63;;;;;;;;;;5071297;28;20207;-65
2023/02/27 05:13:27;;;;;;;9.27;3.83;;;;;;;;;;5022373;28;20048;-66
2023/02/27 05:16:08;;;;;;;13.80;4.72;;;;;;;;;;5070951;28;20048;-65
2023/02/27 05:18:38;;;;;;;8.50;4.05;;;;;;;;;;5071215;28;20160;-65
2023/02/27 05:21:29;;;;;;;9.63;5.00;;;;;;;;;;5071013;28;20060;-65
2023/02/27 05:24:35;;;;;;;8.07;4.70;;;;;;;;;;4988636;28;20056;-66
2023/02/27 05:27:14;;;;;;;7.03;4.05;;;;;;;;;;5103033;27;20051;-65
2023/02/27 05:29:52;;;;;;;8.77;3.80;;;;;;;;;;5081690;27;20070;-66
2023/02/27 05:32:33;;;;;;;11.23;4.13;;;;;;;;;;5083009;27;20051;-65
2023/02/27 05:35:02;;;;;;;6.85;3.67;;;;;;;;;;5098316;27;20051;-66
2023/02/27 05:38:11;;;;;;;14.82;4.20;;;;;;;;;;5098229;27;20418;-66
2023/02/27 05:40:51;;;;;;;12.00;4.25;;;;;;;;;;4981794;28;20391;-66
2023/02/27 05:43:51;;;;;;;8.88;4.43;;;;;;;;;;5013997;28;20053;-65
2023/02/27 05:46:32;;;;;;;12.18;4.80;;;;;;;;;;4971757;28;20066;-66
2023/02/27 05:49:09;;;;;;;12.23;4.50;;;;;;;;;;4956446;28;20062;-65
2023/02/27 05:51:42;;;;;;;10.65;4.80;;;;;;;;;;4939393;28;20613;-66
2023/02/27 05:54:49;;;;;;;8.52;4.15;;;;;;;;;;4971559;28;20054;-65
2023/02/27 05:57:48;;;;;;;9.70;5.22;;;;;;;;;;4939797;28;20069;-65
2023/02/27 06:00:40;;;;;;;13.98;5.28;;;;;;;;;;4939314;28;20051;-65
2023/02/27 06:03:10;;;;;;;16.02;5.47;;;;;;;;;;4971344;28;20062;-66
2023/02/27 06:05:42;;;;;;;14.32;6.90;;;;;;;;;;4917263;29;20059;-65
2023/02/27 06:08:12;;;;;;;12.82;5.03;;;;;;;;;;4916766;29;20055;-65
2023/02/27 06:10:42;;;;;;;12.70;5.65;;;;;;;;;;4901111;29;20056;-66
2023/02/27 06:13:12;;;;;;;14.90;5.80;;;;;;;;;;4916918;29;20126;-66
2023/02/27 06:15:43;;;;;;;13.90;6.30;;;;;;;;;;4932903;29;20051;-65
2023/02/27 06:18:14;;;;;;;9.02;5.07;;;;;;;;;;4963564;28;20526;-65
2023/02/27 06:20:46;;;;;;;14.00;5.35;;;;;;;;;;4971495;28;20058;-65
2023/02/27 06:23:16;;;;;;;10.50;4.88;;;;;;;;;;4974285;28;20056;-65
2023/02/27 06:25:47;;;;;;;10.77;4.38;;;;;;;;;;5016831;28;20057;-65
2023/02/27 06:28:16;;;;;;;8.65;3.65;;;;;;;;;;5016465;28;20080;-65
2023/02/27 06:30:46;;;;;;;8.52;4.07;;;;;;;;;;5049497;28;20049;-66
2023/02/27 06:33:16;;;;;;;7.43;3.08;;;;;;;;;;5049730;28;20421;-65
2023/02/27 06:35:49;;;;;;;12.25;3.60;;;;;;;;;;5016582;28;20053;-66
2023/02/27 06:38:19;;;;;;;7.13;2.92;;;;;;;;;;5049518;28;20045;-65
2023/02/27 06:40:50;;;;;;;7.22;3.28;;;;;;;;;;5049675;28;20149;-65
2023/02/27 06:43:23;;;;;;;5.43;3.08;;;;;;;;;;5069881;28;20052;-65
2023/02/27 06:45:54;;;;;;;7.55;3.17;;;;;;;;;;5073547;28;20074;-66
2023/02/27 06:48:24;;;;;;;9.23;3.10;;;;;;;;;;5113181;27;20081;-65
2023/02/27 06:50:55;;;;;;;11.45;2.92;;;;;;;;;;5132932;27;20525;-65
2023/02/27 06:53:26;;;;;;;8.85;3.08;;;;;;;;;;5068855;28;20057;-65
2023/02/27 06:55:56;;;;;;;6.82;3.28;;;;;;;;;;5069268;28;20646;-65
2023/02/27 06:58:26;;;;;;;7.50;3.28;;;;;;;;;;5052268;28;20535;-66
2023/02/27 07:01:00;;;;;;;6.78;3.00;;;;;;;;;;5069331;28;20049;-66
2023/02/27 07:03:30;;;;;;;7.00;3.00;;;;;;;;;;5069336;28;20052;-65
2023/02/27 07:06:02;;;;;;;6.07;2.90;;;;;;;;;;5069454;28;20052;-67
2023/02/27 07:08:32;;;;;;;5.93;2.70;;;;;;;;;;5069075;28;20084;-65
2023/02/27 07:11:01;;;;;;;4.35;2.17;;;;;;;;;;5018831;28;20440;-65
2023/02/27 07:13:32;;;;;;;9.10;2.95;;;;;;;;;;5069220;28;20056;-66
2023/02/27 07:16:02;;;;;;;7.13;3.13;;;;;;;;;;5051253;28;20059;-66
2023/02/27 07:18:32;;;;;;;10.93;5.13;;;;;;;;;;5067844;28;20689;-66
2023/02/27 07:21:02;;;;;;;9.50;3.33;;;;;;;;;;5060834;28;20183;-67
2023/02/27 07:23:32;;;;;;;12.75;4.82;;;;;;;;;;5063226;28;20047;-67
2023/02/27 07:26:02;;;;;;;9.98;4.18;;;;;;;;;;5067246;28;20048;-65
2023/02/27 07:28:32;;;;;;;10.63;3.60;;;;;;;;;;5052072;28;20056;-66
2023/02/27 07:31:01;;;;;;;10.10;3.60;;;;;;;;;;5088713;28;20055;-65
2023/02/27 07:33:32;;;;;;;7.35;4.60;;;;;;;;;;5068609;28;20046;-65
2023/02/27 07:36:02;;;;;;;6.72;2.88;;;;;;;;;;5068615;28;20167;-66
2023/02/27 07:38:33;;;;;;;6.97;3.05;;;;;;;;;;5068723;28;20076;-66
2023/02/27 07:41:02;;;;;;;7.38;3.72;;;;;;;;;;5018328;28;20523;-66
2023/02/27 07:43:32;;;;;;;7.00;2.92;;;;;;;;;;5068661;28;20045;-65
2023/02/27 07:46:02;;;;;;;6.47;3.17;;;;;;;;;;5068518;28;20524;-66
2023/02/27 07:48:33;;;;;;;7.57;3.83;;;;;;;;;;5068455;28;20111;-65
2023/02/27 07:51:03;;;;;;;9.00;3.10;;;;;;;;;;5068472;28;20067;-65
2023/02/27 07:53:33;;;;;;;7.50;3.72;;;;;;;;;;5018510;28;20064;-66
2023/02/27 07:56:03;;;;;;;13.15;3.33;;;;;;;;;;5051473;28;20504;-65
2023/02/27 07:58:32;;;;;;;6.68;2.88;;;;;;;;;;5018739;28;20056;-65
2023/02/27 08:01:02;;;;;;;6.30;2.53;;;;;;;;;;5068426;28;20045;-65
2023/02/27 08:03:33;;;;;;;7.38;2.60;;;;;;;;;;5068626;28;20048;-66
2023/02/27 08:06:04;;;;;;;6.93;2.85;;;;;;;;;;5051533;28;20407;-65
2023/02/27 08:08:34;;;;;;;6.78;3.00;;;;;;;;;;5035107;28;20503;-66
2023/02/27 08:11:04;;;;;;;8.98;3.17;;;;;;;;;;5054238;28;20051;-66
2023/02/27 08:13:33;;;;;;;7.72;3.83;;;;;;;;;;5058724;28;20520;-65
2023/02/27 08:16:24;;;;;;;6.95;3.03;;;;;;;;;;5111148;28;20047;-65
2023/02/27 08:18:54;;;;;;;5.80;2.72;;;;;;;;;;5111377;28;20047;-65
2023/02/27 08:21:25;;;;;;;6.38;3.40;;;;;;;;;;5058448;28;20523;-66
2023/02/27 08:23:56;;;;;;;8.55;3.83;;;;;;;;;;5058446;28;20539;-66
2023/02/27 08:26:25;;;;;;;6.22;2.63;;;;;;;;;;5075081;28;20526;-65
2023/02/27 08:28:56;;;;;;;6.55;2.78;;;;;;;;;;5092106;28;20082;-65
2023/02/27 08:31:25;;;;;;;8.65;3.72;;;;;;;;;;5111310;28;20494;-66
2023/02/27 08:33:55;;;;;;;8.95;3.30;;;;;;;;;;5111353;28;20054;-65
2023/02/27 08:36:38;;;;;;;6.40;3.17;;;;;;;;;;5075102;28;20095;-65
2023/02/27 08:39:09;;;;;;;10.98;3.75;;;;;;;;;;5111286;28;20054;-66
2023/02/27 08:41:39;;;;;;;10.30;3.03;;;;;;;;;;5078092;28;20064;-65
2023/02/27 08:44:09;;;;;;;8.82;3.55;;;;;;;;;;5115255;28;20510;-65
2023/02/27 08:46:41;;;;;;;7.53;2.78;;;;;;;;;;5079896;28;20059;-66
2023/02/27 08:49:11;;;;;;;10.15;3.70;;;;;;;;;;5045981;28;20513;-66
2023/02/27 08:51:41;;;;;;;9.80;3.38;;;;;;;;;;5115147;28;20044;-65
2023/02/27 08:54:11;;;;;;;10.63;3.53;;;;;;;;;;5114858;28;20510;-66
2023/02/27 08:56:40;;;;;;;10.82;4.63;;;;;;;;;;5079412;28;20078;-66
2023/02/27 08:59:10;;;;;;;9.20;3.28;;;;;;;;;;5078629;28;20051;-65
2023/02/27 09:01:41;;;;;;;6.47;2.78;;;;;;;;;;5114800;28;20054;-65
2023/02/27 09:04:11;;;;;;;8.02;3.25;;;;;;;;;;5114691;28;20044;-65
2023/02/27 09:06:41;;;;;;;7.50;2.53;;;;;;;;;;5062225;28;20067;-66
2023/02/27 09:09:11;;;;;;;10.90;3.00;;;;;;;;;;5114799;28;20411;-66
2023/02/27 09:11:41;;;;;;;6.38;2.92;;;;;;;;;;5044404;28;20694;-65
2023/02/27 09:14:12;;;;;;;8.25;3.15;;;;;;;;;;5095356;28;20058;-66
2023/02/27 09:16:41;;;;;;;6.32;2.72;;;;;;;;;;5061680;28;20046;-65
2023/02/27 09:19:13;;;;;;;6.85;3.38;;;;;;;;;;5114102;28;20051;-66
2023/02/27 09:21:43;;;;;;;9.75;3.13;;;;;;;;;;5078438;28;20511;-65
2023/02/27 09:24:13;;;;;;;7.57;3.83;;;;;;;;;;5094982;28;20063;-66
2023/02/27 09:26:48;;;;;;;9.65;3.70;;;;;;;;;;5113832;28;20055;-65
2023/02/27 09:29:18;;;;;;;7.88;3.45;;;;;;;;;;5114176;28;20043;-66
2023/02/27 09:31:49;;;;;;;9.60;3.60;;;;;;;;;;5113896;28;20630;-65
2023/02/27 09:34:19;;;;;;;9.90;3.75;;;;;;;;;;5078034;28;20581;-66
2023/02/27 09:36:48;;;;;;;12.82;4.65;;;;;;;;;;5027759;28;20086;-65
2023/02/27 09:39:18;;;;;;;9.38;4.10;;;;;;;;;;5078704;28;20055;-65
2023/02/27 09:42:10;;;;;;;6.30;3.13;;;;;;;;;;5113902;28;20414;-65
2023/02/27 09:44:46;;;;;;;9.80;3.53;;;;;;;;;;5078967;28;20047;-65
2023/02/27 09:47:34;;;;;;;6.05;2.63;;;;;;;;;;5095019;28;20066;-66
2023/02/27 09:50:38;;;;;;;9.43;3.15;;;;;;;;;;5113480;28;20055;-66
2023/02/27 09:53:30;;;;;;;6.22;2.85;;;;;;;;;;5113156;28;20066;-65
2023/02/27 09:56:12;;;;;;;9.18;3.17;;;;;;;;;;5094205;28;20050;-66
2023/02/27 09:59:02;;;;;;;9.93;2.85;;;;;;;;;;5094102;28;20044;-65
2023/02/27 10:02:05;;;;;;;10.50;3.75;;;;;;;;;;5113229;28;20054;-66
2023/02/27 10:04:43;;;;;;;13.23;4.05;;;;;;;;;;5030415;28;20064;-65
2023/02/27 10:07:28;;;;;;;10.77;4.10;;;;;;;;;;4981128;28;20057;-65
2023/02/27 10:10:39;;;;;;;13.77;4.72;;;;;;;;;;5013571;28;20053;-66
2023/02/27 10:13:28;;;;;;;14.57;4.55;;;;;;;;;;4997546;28;20433;-67
2023/02/27 10:16:00;;;;;;;10.90;4.57;;;;;;;;;;5029879;28;20165;-65
2023/02/27 10:18:35;;;;;;;14.77;5.82;;;;;;;;;;4997311;28;20148;-66
2023/02/27 10:21:14;;;;;;;18.83;6.90;;;;;;;;;;5013053;28;20379;-67
2023/02/27 10:23:52;;;;;;;126.03;50.42;;;;;;;;;;5029718;28;20057;-66
2023/02/27 10:26:33;;;;;;;22.45;7.45;;;;;;;;;;5030140;28;20060;-66
2023/02/27 10:29:14;;;;;;;22.80;7.45;;;;;;;;;;5029893;28;20061;-66
2023/02/27 10:31:47;;;;;;;28.60;8.05;;;;;;;;;;5030123;28;20547;-65
2023/02/27 10:34:17;;;;;;;31.67;8.27;;;;;;;;;;5012925;28;20429;-66
2023/02/27 10:36:48;;;;;;;32.30;8.93;;;;;;;;;;5012880;28;20052;-66
2023/02/27 10:39:19;;;;;;;40.30;10.75;;;;;;;;;;5013077;28;20406;-66
2023/02/27 10:41:50;;;;;;;34.10;8.48;;;;;;;;;;5046418;28;20411;-66
2023/02/27 10:44:20;;;;;;;37.55;10.48;;;;;;;;;;5112692;28;20046;-67
2023/02/27 10:46:50;;;;;;;37.90;9.93;;;;;;;;;;5112578;28;20043;-66
2023/02/27 10:49:21;;;;;;;33.33;9.77;;;;;;;;;;5112145;28;20054;-66
2023/02/27 10:52:08;;;;;;;35.83;9.80;;;;;;;;;;5076287;28;20052;-65
2023/02/27 10:54:39;;;;;;;36.60;9.80;;;;;;;;;;5112161;28;20067;-66
2023/02/27 10:57:35;;;;;;;26.80;7.65;;;;;;;;;;5059593;28;20085;-66
2023/02/27 11:00:38;;;;;;;28.02;8.85;;;;;;;;;;5076204;28;20043;-66
2023/02/27 11:03:20;;;;;;;29.88;9.32;;;;;;;;;;5092494;28;20499;-65
2023/02/27 11:06:00;;;;;;;36.38;10.45;;;;;;;;;;5112192;28;20043;-66
2023/02/27 11:08:33;;;;;;;36.50;10.75;;;;;;;;;;5112347;28;20048;-66
2023/02/27 11:11:11;;;;;;;34.30;9.95;;;;;;;;;;5059468;28;20407;-65
2023/02/27 11:13:43;;;;;;;37.50;10.73;;;;;;;;;;5112267;28;20521;-65
2023/02/27 11:16:14;;;;;;;;;;;;;;;;;;5112349;28;20375;-66
2023/02/27 11:18:46;;;;;;;34.33;10.38;;;;;;;;;;5076600;28;19920;-66
2023/02/27 11:21:29;;;;;;;33.85;10.75;;;;;;;;;;5092660;28;20059;-65
2023/02/27 11:24:05;;;;;;;43.42;14.27;;;;;;;;;;5111601;28;20120;-66
2023/02/27 11:26:38;;;;;;;36.40;10.68;;;;;;;;;;5075878;28;20460;-66
2023/02/27 11:29:13;;;;;;;34.67;10.00;;;;;;;;;;5111862;28;20508;-66
2023/02/27 11:32:13;;;;;;;36.50;11.00;;;;;;;;;;5110243;28;20483;-66
2023/02/27 11:34:50;;;;;;;42.33;12.98;;;;;;;;;;5111648;28;20483;-66
2023/02/27 11:37:35;;;;;;;36.80;12.55;;;;;;;;;;5059599;28;20063;-66
2023/02/27 11:40:12;;;;;;;40.65;13.05;;;;;;;;;;5041956;28;20055;-66
2023/02/27 11:43:16;;;;;;;36.53;11.90;;;;;;;;;;5075797;28;20063;-65
2023/02/27 11:46:03;;;;;;;35.13;11.15;;;;;;;;;;5028454;28;20431;-66
2023/02/27 11:49:02;;;;;;;30.75;10.35;;;;;;;;;;5028623;28;20404;-65
2023/02/27 11:51:53;;;;;;;38.25;11.52;;;;;;;;;;4979634;28;20221;-66
2023/02/27 11:54:37;;;;;;;34.40;11.18;;;;;;;;;;5028305;28;20517;-67
2023/02/27 11:57:31;;;;;;;31.70;9.68;;;;;;;;;;5011842;28;20052;-67
2023/02/27 12:00:13;;;;;;;34.80;12.52;;;;;;;;;;5028479;28;20072;-66
2023/02/27 12:03:03;;;;;;;28.63;10.55;;;;;;;;;;4995918;28;20058;-66
2023/02/27 12:05:45;;;;;;;33.53;11.10;;;;;;;;;;5028584;28;20516;-66
2023/02/27 12:08:18;;;;;;;30.92;10.25;;;;;;;;;;4996352;28;20053;-66
2023/02/27 12:11:11;;;;;;;28.50;10.43;;;;;;;;;;4979484;28;20057;-67
2023/02/27 12:14:18;;;;;;;30.55;9.77;;;;;;;;;;5028627;28;20049;-67
2023/02/27 12:17:02;;;;;;;37.97;10.98;;;;;;;;;;5015004;28;20054;-67
2023/02/27 12:20:06;;;;;;;31.83;10.45;;;;;;;;;;4999465;28;20117;-68
2023/02/27 12:22:44;;;;;;;24.70;8.60;;;;;;;;;;4963711;28;20076;-66
2023/02/27 12:25:32;;;;;;;26.40;9.88;;;;;;;;;;4964130;28;20054;-66
2023/02/27 12:28:26;;;;;;;26.40;10.60;;;;;;;;;;4996638;28;20054;-67
2023/02/27 12:31:07;;;;;;;29.65;9.98;;;;;;;;;;5012527;28;20064;-66
2023/02/27 12:33:37;;;;;;;21.98;8.68;;;;;;;;;;5021547;28;20053;-67
2023/02/27 12:36:13;;;;;;;17.27;7.82;;;;;;;;;;5032334;28;20059;-66
2023/02/27 12:38:43;;;;;;;11.07;4.82;;;;;;;;;;5031663;28;20054;-67
2023/02/27 12:41:35;;;;;;;11.88;5.13;;;;;;;;;;4944371;28;20054;-67
2023/02/27 12:44:30;;;;;;;15.38;6.07;;;;;;;;;;4992657;28;20581;-66
2023/02/27 12:47:19;;;;;;;15.48;6.25;;;;;;;;;;4945247;28;20058;-65
2023/02/27 12:50:02;;;;;;;13.38;6.40;;;;;;;;;;4992917;28;20049;-66
2023/02/27 12:52:49;;;;;;;15.32;6.50;;;;;;;;;;4976320;28;20540;-66
2023/02/27 12:55:32;;;;;;;19.67;7.65;;;;;;;;;;4972757;28;20058;-66
2023/02/27 12:58:14;;;;;;;18.38;7.70;;;;;;;;;;5003655;28;20052;-65
2023/02/27 13:01:18;;;;;;;20.27;8.57;;;;;;;;;;5051283;28;20068;-64
2023/02/27 13:04:06;;;;;;;24.27;9.10;;;;;;;;;;5051416;28;20543;-65
2023/02/27 13:07:07;;;;;;;31.25;12.27;;;;;;;;;;5051168;28;20547;-65
2023/02/27 13:09:43;;;;;;;23.13;8.82;;;;;;;;;;5051453;28;20511;-66
2023/02/27 13:12:33;;;;;;;28.10;9.32;;;;;;;;;;5051174;28;20068;-65
2023/02/27 13:15:24;;;;;;;21.40;8.85;;;;;;;;;;5051240;28;20048;-67
2023/02/27 13:18:00;;;;;;;19.02;9.30;;;;;;;;;;4989466;28;20579;-66
2023/02/27 13:20:55;;;;;;;19.33;7.93;;;;;;;;;;5057877;28;20059;-66
2023/02/27 13:23:31;;;;;;;31.45;14.10;;;;;;;;;;5059228;28;20431;-66
2023/02/27 13:26:12;;;;;;;16.05;7.22;;;;;;;;;;5057374;28;20056;-66
2023/02/27 13:28:43;;;;;;;17.60;7.68;;;;;;;;;;5058494;28;20055;-66
2023/02/27 13:31:31;;;;;;;18.15;6.95;;;;;;;;;;5023899;28;20597;-66
2023/02/27 13:34:42;;;;;;;16.95;7.63;;;;;;;;;;5073503;28;20066;-65
2023/02/27 13:37:12;;;;;;;14.02;6.25;;;;;;;;;;5050747;28;20067;-67
2023/02/27 13:39:45;;;;;;;11.95;5.80;;;;;;;;;;5051003;28;20197;-66
2023/02/27 13:42:44;;;;;;;10.00;5.03;;;;;;;;;;5050583;28;20156;-65
2023/02/27 13:45:46;;;;;;;9.65;4.18;;;;;;;;;;5011206;28;20064;-65
2023/02/27 13:48:42;;;;;;;11.52;5.50;;;;;;;;;;5010832;28;20061;-67
2023/02/27 13:51:41;;;;;;;9.13;4.75;;;;;;;;;;4994241;28;20074;-67
2023/02/27 13:54:13;;;;;;;8.93;3.97;;;;;;;;;;5009127;28;20557;-66
2023/02/27 13:56:49;;;;;;;10.88;3.75;;;;;;;;;;4982618;28;20050;-67
2023/02/27 13:59:24;;;;;;;8.20;4.18;;;;;;;;;;4940663;28;20537;-66
2023/02/27 14:02:09;;;;;;;8.07;4.15;;;;;;;;;;4990823;28;20054;-66
2023/02/27 14:04:52;;;;;;;8.02;4.30;;;;;;;;;;4990906;28;20494;-65
2023/02/27 14:07:25;;;;;;;9.85;4.05;;;;;;;;;;4989965;28;20057;-65
2023/02/27 14:10:06;;;;;;;7.30;3.28;;;;;;;;;;4983095;28;20066;-68
2023/02/27 14:12:42;;;;;;;6.80;3.30;;;;;;;;;;4975952;28;20054;-66
2023/02/27 14:15:17;;;;;;;6.63;3.65;;;;;;;;;;5010689;28;20054;-68
2023/02/27 14:17:48;;;;;;;7.13;3.17;;;;;;;;;;5026455;28;20627;-65
2023/02/27 14:20:26;;;;;;;6.70;3.58;;;;;;;;;;5030395;28;20516;-67
2023/02/27 14:23:14;;;;;;;;;;;;;;;;;;5067338;28;20514;-66
2023/02/27 14:25:54;;;;;;;6.47;3.97;;;;;;;;;;5059697;28;19919;-67
2023/02/27 14:29:00;;;;;;;9.00;3.75;;;;;;;;;;5073301;28;20060;-69
2023/02/27 14:31:33;;;;;;;6.90;3.70;;;;;;;;;;4990250;28;20050;-68
2023/02/27 14:34:08;;;;;;;6.55;3.53;;;;;;;;;;4974411;28;20054;-68
2023/02/27 14:36:56;;;;;;;9.35;4.38;;;;;;;;;;4974350;28;20057;-67
2023/02/27 14:39:35;;;;;;;6.35;3.92;;;;;;;;;;4973567;28;20059;-68
2023/02/27 14:42:42;;;;;;;6.65;3.92;;;;;;;;;;4990362;28;20054;-68
2023/02/27 14:45:23;;;;;;;8.57;4.43;;;;;;;;;;4985264;28;20050;-69
2023/02/27 14:47:54;;;;;;;8.05;4.63;;;;;;;;;;5009948;28;20061;-69
2023/02/27 14:50:31;;;;;;;5.93;3.28;;;;;;;;;;5010069;28;20042;-70
2023/02/27 14:53:02;;;;;;;7.85;3.67;;;;;;;;;;4992705;28;20049;-70
2023/02/27 14:55:34;;;;;;;7.25;3.47;;;;;;;;;;5009460;28;20057;-70
2023/02/27 14:58:08;;;;;;;5.30;2.92;;;;;;;;;;5009288;28;20082;-70
2023/02/27 15:00:57;;;;;;;8.10;3.65;;;;;;;;;;4962183;28;20059;-72
2023/02/27 15:03:42;;;;;;;5.63;3.30;;;;;;;;;;4988399;28;20069;-68
2023/02/27 15:06:22;;;;;;;5.75;3.22;;;;;;;;;;5064619;28;20511;-73
2023/02/27 15:08:55;;;;;;;6.75;3.28;;;;;;;;;;5071388;28;20083;-70
2023/02/27 15:11:26;;;;;;;4.47;2.85;;;;;;;;;;5090395;28;20040;-69
2023/02/27 15:14:05;;;;;;;5.80;3.20;;;;;;;;;;5100581;28;20030;-71
2023/02/27 15:16:41;;;;;;;6.35;3.30;;;;;;;;;;5094914;28;20043;-70
2023/02/27 15:19:17;;;;;;;6.35;3.55;;;;;;;;;;5073222;28;20047;-68
2023/02/27 15:21:54;;;;;;;6.00;3.30;;;;;;;;;;5043620;28;20507;-71
2023/02/27 15:24:32;;;;;;;7.53;2.70;;;;;;;;;;5091548;28;20040;-74
2023/02/27 15:27:23;;;;;;;8.40;2.78;;;;;;;;;;5071923;28;20066;-67
2023/02/27 15:29:58;;;;;;;5.00;3.33;;;;;;;;;;5028177;28;20054;-70
2023/02/27 15:32:35;;;;;;;6.30;3.10;;;;;;;;;;5105435;28;20039;-68
2023/02/27 15:35:16;;;;;;;7.63;3.08;;;;;;;;;;5083335;28;20075;-71
2023/02/27 15:37:55;;;;;;;5.57;2.85;;;;;;;;;;5100937;28;20063;-69
2023/02/27 15:40:27;;;;;;;5.25;2.95;;;;;;;;;;5099161;28;20044;-70
2023/02/27 15:42:58;;;;;;;5.95;3.03;;;;;;;;;;5088827;28;20047;-69
2023/02/27 15:45:34;;;;;;;5.07;3.05;;;;;;;;;;5088640;28;20059;-69